sensor_id;sensor_type;location;lat;lon;timestamp;P1;durP1;ratioP1;P2;durP2;ratioP2
64686;SDS011;51113;53.646;-113.674;2023-09-19T00:00:44;2.92;;;1.35;;
64686;SDS011;51113;53.646;-113.674;2023-09-19T00:03:16;6.05;;;1.55;;
64686;SDS011;51113;53.646;-113.674;2023-09-19T00:05:45;4.20;;;1.30;;
64686;SDS011;51113;53.646;-113.674;2023-09-19T00:08:13;4.68;;;1.20;;
64686;SDS011;51113;53.646;-113.674;2023-09-19T00:10:42;2.42;;;1.27;;
64686;SDS011;51113;53.646;-113.674;2023-09-19T00:13:11;5.43;;;1.40;;
64686;SDS011;51113;53.646;-113.674;2023-09-19T00:15:44;3.80;;;1.63;;
64686;SDS011;51113;53.646;-113.674;2023-09-19T00:18:17;5.35;;;1.20;;
64686;SDS011;51113;53.646;-113.674;2023-09-19T00:20:49;10.07;;;1.30;;
64686;SDS011;51113;53.646;-113.674;2023-09-19T00:23:19;1.98;;;1.25;;
64686;SDS011;51113;53.646;-113.674;2023-09-19T00:25:48;3.28;;;0.98;;
64686;SDS011;51113;53.646;-113.674;2023-09-19T00:28:18;1.98;;;1.00;;
64686;SDS011;51113;53.646;-113.674;2023-09-19T00:30:47;1.35;;;0.95;;
64686;SDS011;51113;53.646;-113.674;2023-09-19T00:33:19;2.75;;;1.00;;
64686;SDS011;51113;53.646;-113.674;2023-09-19T00:35:47;5.50;;;1.25;;
64686;SDS011;51113;53.646;-113.674;2023-09-19T00:38:17;8.77;;;1.13;;
64686;SDS011;51113;53.646;-113.674;2023-09-19T00:40:49;1.80;;;0.90;;
64686;SDS011;51113;53.646;-113.674;2023-09-19T00:43:25;2.85;;;1.10;;
64686;SDS011;51113;53.646;-113.674;2023-09-19T00:45:55;2.97;;;0.95;;
64686;SDS011;51113;53.646;-113.674;2023-09-19T00:48:25;3.20;;;1.23;;
64686;SDS011;51113;53.646;-113.674;2023-09-19T00:50:57;8.35;;;1.05;;
64686;SDS011;51113;53.646;-113.674;2023-09-19T00:53:30;10.23;;;1.42;;
64686;SDS011;51113;53.646;-113.674;2023-09-19T00:55:59;3.80;;;1.10;;
64686;SDS011;51113;53.646;-113.674;2023-09-19T00:58:28;12.00;;;1.23;;
64686;SDS011;51113;53.646;-113.674;2023-09-19T01:01:01;9.00;;;1.10;;
64686;SDS011;51113;53.646;-113.674;2023-09-19T01:03:34;9.18;;;1.17;;
64686;SDS011;51113;53.646;-113.674;2023-09-19T01:06:05;8.75;;;1.20;;
64686;SDS011;51113;53.646;-113.674;2023-09-19T01:08:36;4.43;;;0.90;;
64686;SDS011;51113;53.646;-113.674;2023-09-19T01:13:46;6.57;;;1.00;;
64686;SDS011;51113;53.646;-113.674;2023-09-19T01:20:15;1.70;;;1.10;;
64686;SDS011;51113;53.646;-113.674;2023-09-19T01:31:40;7.03;;;1.17;;
64686;SDS011;51113;53.646;-113.674;2023-09-19T01:34:13;6.80;;;1.08;;
64686;SDS011;51113;53.646;-113.674;2023-09-19T01:36:41;11.88;;;1.63;;
64686;SDS011;51113;53.646;-113.674;2023-09-19T01:39:11;6.55;;;1.10;;
64686;SDS011;51113;53.646;-113.674;2023-09-19T01:44:56;1.30;;;0.70;;
64686;SDS011;51113;53.646;-113.674;2023-09-19T01:47:41;2.78;;;1.17;;
64686;SDS011;51113;53.646;-113.674;2023-09-19T01:50:38;5.88;;;1.10;;
64686;SDS011;51113;53.646;-113.674;2023-09-19T01:53:51;3.83;;;0.98;;
64686;SDS011;51113;53.646;-113.674;2023-09-19T01:56:21;8.32;;;1.17;;
64686;SDS011;51113;53.646;-113.674;2023-09-19T01:58:53;2.88;;;0.73;;
64686;SDS011;51113;53.646;-113.674;2023-09-19T02:01:27;6.13;;;1.38;;
64686;SDS011;51113;53.646;-113.674;2023-09-19T02:03:57;6.80;;;1.25;;
64686;SDS011;51113;53.646;-113.674;2023-09-19T02:06:26;3.70;;;1.65;;
64686;SDS011;51113;53.646;-113.674;2023-09-19T02:08:55;1.85;;;0.98;;
64686;SDS011;51113;53.646;-113.674;2023-09-19T02:11:24;7.57;;;1.10;;
64686;SDS011;51113;53.646;-113.674;2023-09-19T02:13:53;6.25;;;0.93;;
64686;SDS011;51113;53.646;-113.674;2023-09-19T02:16:22;16.63;;;1.40;;
64686;SDS011;51113;53.646;-113.674;2023-09-19T02:18:51;8.15;;;1.35;;
64686;SDS011;51113;53.646;-113.674;2023-09-19T02:21:19;6.40;;;2.00;;
64686;SDS011;51113;53.646;-113.674;2023-09-19T02:23:49;7.07;;;1.52;;
64686;SDS011;51113;53.646;-113.674;2023-09-19T02:26:19;18.23;;;2.30;;
64686;SDS011;51113;53.646;-113.674;2023-09-19T02:28:48;6.70;;;1.63;;
64686;SDS011;51113;53.646;-113.674;2023-09-19T02:31:16;3.72;;;1.70;;
64686;SDS011;51113;53.646;-113.674;2023-09-19T02:33:45;14.27;;;1.70;;
64686;SDS011;51113;53.646;-113.674;2023-09-19T02:36:14;10.25;;;1.98;;
64686;SDS011;51113;53.646;-113.674;2023-09-19T02:38:44;19.02;;;2.22;;
64686;SDS011;51113;53.646;-113.674;2023-09-19T02:41:13;14.73;;;2.13;;
64686;SDS011;51113;53.646;-113.674;2023-09-19T02:43:42;19.50;;;2.13;;
64686;SDS011;51113;53.646;-113.674;2023-09-19T02:46:10;7.35;;;1.38;;
64686;SDS011;51113;53.646;-113.674;2023-09-19T02:48:39;13.23;;;1.60;;
64686;SDS011;51113;53.646;-113.674;2023-09-19T02:51:09;11.63;;;1.60;;
64686;SDS011;51113;53.646;-113.674;2023-09-19T02:53:38;13.85;;;1.85;;
64686;SDS011;51113;53.646;-113.674;2023-09-19T02:56:07;10.23;;;1.75;;
64686;SDS011;51113;53.646;-113.674;2023-09-19T02:58:37;11.02;;;1.65;;
64686;SDS011;51113;53.646;-113.674;2023-09-19T03:01:09;17.17;;;1.83;;
64686;SDS011;51113;53.646;-113.674;2023-09-19T03:03:42;12.65;;;1.88;;
64686;SDS011;51113;53.646;-113.674;2023-09-19T03:06:11;13.52;;;2.45;;
64686;SDS011;51113;53.646;-113.674;2023-09-19T03:08:40;9.02;;;1.33;;
64686;SDS011;51113;53.646;-113.674;2023-09-19T03:11:10;15.32;;;1.50;;
64686;SDS011;51113;53.646;-113.674;2023-09-19T03:13:40;14.60;;;2.30;;
64686;SDS011;51113;53.646;-113.674;2023-09-19T03:16:10;11.40;;;1.40;;
64686;SDS011;51113;53.646;-113.674;2023-09-19T03:18:38;19.10;;;2.05;;
64686;SDS011;51113;53.646;-113.674;2023-09-19T03:21:07;21.92;;;2.00;;
64686;SDS011;51113;53.646;-113.674;2023-09-19T03:23:38;10.23;;;1.70;;
64686;SDS011;51113;53.646;-113.674;2023-09-19T03:26:07;6.10;;;1.10;;
64686;SDS011;51113;53.646;-113.674;2023-09-19T03:28:36;17.75;;;1.65;;
64686;SDS011;51113;53.646;-113.674;2023-09-19T03:31:06;11.43;;;1.30;;
64686;SDS011;51113;53.646;-113.674;2023-09-19T03:33:35;10.02;;;1.55;;
64686;SDS011;51113;53.646;-113.674;2023-09-19T03:36:04;13.07;;;1.38;;
64686;SDS011;51113;53.646;-113.674;2023-09-19T03:38:33;13.18;;;1.77;;
64686;SDS011;51113;53.646;-113.674;2023-09-19T03:41:02;13.85;;;1.02;;
64686;SDS011;51113;53.646;-113.674;2023-09-19T03:43:34;14.38;;;1.50;;
64686;SDS011;51113;53.646;-113.674;2023-09-19T03:46:03;12.25;;;1.55;;
64686;SDS011;51113;53.646;-113.674;2023-09-19T03:48:35;13.25;;;1.70;;
64686;SDS011;51113;53.646;-113.674;2023-09-19T03:51:04;8.57;;;1.00;;
64686;SDS011;51113;53.646;-113.674;2023-09-19T03:53:32;7.50;;;1.25;;
64686;SDS011;51113;53.646;-113.674;2023-09-19T03:56:01;4.78;;;1.00;;
64686;SDS011;51113;53.646;-113.674;2023-09-19T03:58:30;8.73;;;1.30;;
64686;SDS011;51113;53.646;-113.674;2023-09-19T04:00:59;5.93;;;0.90;;
64686;SDS011;51113;53.646;-113.674;2023-09-19T04:03:28;10.95;;;1.25;;
64686;SDS011;51113;53.646;-113.674;2023-09-19T04:06:03;6.90;;;1.30;;
64686;SDS011;51113;53.646;-113.674;2023-09-19T04:08:32;4.75;;;0.95;;
64686;SDS011;51113;53.646;-113.674;2023-09-19T04:11:00;10.38;;;1.10;;
64686;SDS011;51113;53.646;-113.674;2023-09-19T04:13:29;4.32;;;1.13;;
64686;SDS011;51113;53.646;-113.674;2023-09-19T04:15:58;10.45;;;1.45;;
64686;SDS011;51113;53.646;-113.674;2023-09-19T04:18:27;1.70;;;1.00;;
64686;SDS011;51113;53.646;-113.674;2023-09-19T04:20:55;4.75;;;0.93;;
64686;SDS011;51113;53.646;-113.674;2023-09-19T04:23:24;1.85;;;0.90;;
64686;SDS011;51113;53.646;-113.674;2023-09-19T04:25:52;5.70;;;1.00;;
64686;SDS011;51113;53.646;-113.674;2023-09-19T04:28:21;13.38;;;1.08;;
64686;SDS011;51113;53.646;-113.674;2023-09-19T04:30:51;8.57;;;0.68;;
64686;SDS011;51113;53.646;-113.674;2023-09-19T04:33:19;2.45;;;1.00;;
64686;SDS011;51113;53.646;-113.674;2023-09-19T04:35:51;6.30;;;0.90;;
64686;SDS011;51113;53.646;-113.674;2023-09-19T04:38:20;2.75;;;0.90;;
64686;SDS011;51113;53.646;-113.674;2023-09-19T04:40:48;9.82;;;1.02;;
64686;SDS011;51113;53.646;-113.674;2023-09-19T04:43:17;3.08;;;0.98;;
64686;SDS011;51113;53.646;-113.674;2023-09-19T04:45:45;2.42;;;1.00;;
64686;SDS011;51113;53.646;-113.674;2023-09-19T04:48:14;2.63;;;0.93;;
64686;SDS011;51113;53.646;-113.674;2023-09-19T04:50:44;2.08;;;0.85;;
64686;SDS011;51113;53.646;-113.674;2023-09-19T04:53:12;1.23;;;0.80;;
64686;SDS011;51113;53.646;-113.674;2023-09-19T04:55:41;3.83;;;1.23;;
64686;SDS011;51113;53.646;-113.674;2023-09-19T04:58:10;3.83;;;0.93;;
64686;SDS011;51113;53.646;-113.674;2023-09-19T05:00:38;2.83;;;0.70;;
64686;SDS011;51113;53.646;-113.674;2023-09-19T05:03:07;5.68;;;1.52;;
64686;SDS011;51113;53.646;-113.674;2023-09-19T05:05:36;4.05;;;1.35;;
64686;SDS011;51113;53.646;-113.674;2023-09-19T05:08:06;1.92;;;0.70;;
64686;SDS011;51113;53.646;-113.674;2023-09-19T05:10:37;11.40;;;1.15;;
64686;SDS011;51113;53.646;-113.674;2023-09-19T05:13:05;2.35;;;1.00;;
64686;SDS011;51113;53.646;-113.674;2023-09-19T05:15:35;2.72;;;1.02;;
64686;SDS011;51113;53.646;-113.674;2023-09-19T05:18:04;2.78;;;0.88;;
64686;SDS011;51113;53.646;-113.674;2023-09-19T05:20:34;3.42;;;0.85;;
64686;SDS011;51113;53.646;-113.674;2023-09-19T05:23:05;1.60;;;0.98;;
64686;SDS011;51113;53.646;-113.674;2023-09-19T05:25:39;6.20;;;0.90;;
64686;SDS011;51113;53.646;-113.674;2023-09-19T05:28:08;12.57;;;1.05;;
64686;SDS011;51113;53.646;-113.674;2023-09-19T05:30:39;1.70;;;0.75;;
64686;SDS011;51113;53.646;-113.674;2023-09-19T05:33:11;1.38;;;0.88;;
64686;SDS011;51113;53.646;-113.674;2023-09-19T05:35:40;8.35;;;1.13;;
64686;SDS011;51113;53.646;-113.674;2023-09-19T05:38:09;1.50;;;0.70;;
64686;SDS011;51113;53.646;-113.674;2023-09-19T05:40:40;2.47;;;1.00;;
64686;SDS011;51113;53.646;-113.674;2023-09-19T05:43:10;1.77;;;1.00;;
64686;SDS011;51113;53.646;-113.674;2023-09-19T05:45:39;1.30;;;0.80;;
64686;SDS011;51113;53.646;-113.674;2023-09-19T05:48:08;13.73;;;0.98;;
64686;SDS011;51113;53.646;-113.674;2023-09-19T05:50:39;4.07;;;1.05;;
64686;SDS011;51113;53.646;-113.674;2023-09-19T05:53:08;3.20;;;0.70;;
64686;SDS011;51113;53.646;-113.674;2023-09-19T05:55:40;2.00;;;0.98;;
64686;SDS011;51113;53.646;-113.674;2023-09-19T05:58:08;3.03;;;0.80;;
64686;SDS011;51113;53.646;-113.674;2023-09-19T06:00:37;1.77;;;0.70;;
64686;SDS011;51113;53.646;-113.674;2023-09-19T06:03:06;6.00;;;1.00;;
64686;SDS011;51113;53.646;-113.674;2023-09-19T06:05:35;1.92;;;0.88;;
64686;SDS011;51113;53.646;-113.674;2023-09-19T06:08:04;1.45;;;0.93;;
64686;SDS011;51113;53.646;-113.674;2023-09-19T06:10:35;3.40;;;0.88;;
64686;SDS011;51113;53.646;-113.674;2023-09-19T06:13:04;3.45;;;0.70;;
64686;SDS011;51113;53.646;-113.674;2023-09-19T06:15:33;0.98;;;0.80;;
64686;SDS011;51113;53.646;-113.674;2023-09-19T06:18:03;6.20;;;1.05;;
64686;SDS011;51113;53.646;-113.674;2023-09-19T06:20:32;6.65;;;1.13;;
64686;SDS011;51113;53.646;-113.674;2023-09-19T06:23:01;1.08;;;0.80;;
64686;SDS011;51113;53.646;-113.674;2023-09-19T06:25:31;6.25;;;1.52;;
64686;SDS011;51113;53.646;-113.674;2023-09-19T06:27:59;4.32;;;0.95;;
64686;SDS011;51113;53.646;-113.674;2023-09-19T06:30:32;3.80;;;1.20;;
64686;SDS011;51113;53.646;-113.674;2023-09-19T06:33:02;2.55;;;1.10;;
64686;SDS011;51113;53.646;-113.674;2023-09-19T06:35:32;1.88;;;1.00;;
64686;SDS011;51113;53.646;-113.674;2023-09-19T06:38:02;3.25;;;0.88;;
64686;SDS011;51113;53.646;-113.674;2023-09-19T06:40:31;7.90;;;1.13;;
64686;SDS011;51113;53.646;-113.674;2023-09-19T06:43:03;4.55;;;1.00;;
64686;SDS011;51113;53.646;-113.674;2023-09-19T06:45:33;1.05;;;0.82;;
64686;SDS011;51113;53.646;-113.674;2023-09-19T06:48:02;4.95;;;1.13;;
64686;SDS011;51113;53.646;-113.674;2023-09-19T06:50:31;4.13;;;0.90;;
64686;SDS011;51113;53.646;-113.674;2023-09-19T06:53:00;3.65;;;1.00;;
64686;SDS011;51113;53.646;-113.674;2023-09-19T06:55:30;4.40;;;1.00;;
64686;SDS011;51113;53.646;-113.674;2023-09-19T06:57:59;11.80;;;1.10;;
64686;SDS011;51113;53.646;-113.674;2023-09-19T07:00:28;1.52;;;0.70;;
64686;SDS011;51113;53.646;-113.674;2023-09-19T07:05:39;0.93;;;0.82;;
64686;SDS011;51113;53.646;-113.674;2023-09-19T07:08:09;5.03;;;1.00;;
64686;SDS011;51113;53.646;-113.674;2023-09-19T07:10:41;3.53;;;0.80;;
64686;SDS011;51113;53.646;-113.674;2023-09-19T07:13:16;6.55;;;1.27;;
64686;SDS011;51113;53.646;-113.674;2023-09-19T07:15:45;1.95;;;0.85;;
64686;SDS011;51113;53.646;-113.674;2023-09-19T07:18:14;2.33;;;0.90;;
64686;SDS011;51113;53.646;-113.674;2023-09-19T07:20:44;8.23;;;1.27;;
64686;SDS011;51113;53.646;-113.674;2023-09-19T07:23:20;1.90;;;1.17;;
64686;SDS011;51113;53.646;-113.674;2023-09-19T07:25:56;1.70;;;0.70;;
64686;SDS011;51113;53.646;-113.674;2023-09-19T07:28:26;1.70;;;1.00;;
64686;SDS011;51113;53.646;-113.674;2023-09-19T07:30:56;1.30;;;0.80;;
64686;SDS011;51113;53.646;-113.674;2023-09-19T07:33:25;2.45;;;1.08;;
64686;SDS011;51113;53.646;-113.674;2023-09-19T07:35:56;0.98;;;0.88;;
64686;SDS011;51113;53.646;-113.674;2023-09-19T07:38:27;1.83;;;0.88;;
64686;SDS011;51113;53.646;-113.674;2023-09-19T07:41:02;12.52;;;1.42;;
64686;SDS011;51113;53.646;-113.674;2023-09-19T07:43:31;7.30;;;1.00;;
64686;SDS011;51113;53.646;-113.674;2023-09-19T07:46:06;5.30;;;1.10;;
64686;SDS011;51113;53.646;-113.674;2023-09-19T07:48:39;0.70;;;0.70;;
64686;SDS011;51113;53.646;-113.674;2023-09-19T07:51:08;1.42;;;1.00;;
64686;SDS011;51113;53.646;-113.674;2023-09-19T07:53:37;1.63;;;1.10;;
64686;SDS011;51113;53.646;-113.674;2023-09-19T07:56:07;1.83;;;0.77;;
64686;SDS011;51113;53.646;-113.674;2023-09-19T07:58:39;2.03;;;1.13;;
64686;SDS011;51113;53.646;-113.674;2023-09-19T08:01:12;0.77;;;0.68;;
64686;SDS011;51113;53.646;-113.674;2023-09-19T08:03:41;4.97;;;0.85;;
64686;SDS011;51113;53.646;-113.674;2023-09-19T08:06:11;0.77;;;0.77;;
64686;SDS011;51113;53.646;-113.674;2023-09-19T08:08:41;5.47;;;1.02;;
64686;SDS011;51113;53.646;-113.674;2023-09-19T08:11:09;2.58;;;0.88;;
64686;SDS011;51113;53.646;-113.674;2023-09-19T08:16:13;0.68;;;0.68;;
64686;SDS011;51113;53.646;-113.674;2023-09-19T08:18:46;0.93;;;0.75;;
64686;SDS011;51113;53.646;-113.674;2023-09-19T08:21:15;1.05;;;0.80;;
64686;SDS011;51113;53.646;-113.674;2023-09-19T08:23:43;1.67;;;0.80;;
64686;SDS011;51113;53.646;-113.674;2023-09-19T08:26:12;1.30;;;0.80;;
64686;SDS011;51113;53.646;-113.674;2023-09-19T08:28:41;0.75;;;0.75;;
64686;SDS011;51113;53.646;-113.674;2023-09-19T08:31:09;2.08;;;0.90;;
64686;SDS011;51113;53.646;-113.674;2023-09-19T08:33:38;1.73;;;1.00;;
64686;SDS011;51113;53.646;-113.674;2023-09-19T08:36:08;1.52;;;0.70;;
64686;SDS011;51113;53.646;-113.674;2023-09-19T08:38:37;2.55;;;1.10;;
64686;SDS011;51113;53.646;-113.674;2023-09-19T08:41:06;0.82;;;0.70;;
64686;SDS011;51113;53.646;-113.674;2023-09-19T08:43:36;2.55;;;1.00;;
64686;SDS011;51113;53.646;-113.674;2023-09-19T08:46:12;0.80;;;0.70;;
64686;SDS011;51113;53.646;-113.674;2023-09-19T08:48:50;0.68;;;0.68;;
64686;SDS011;51113;53.646;-113.674;2023-09-19T08:51:42;0.70;;;0.70;;
64686;SDS011;51113;53.646;-113.674;2023-09-19T08:54:20;3.42;;;0.80;;
64686;SDS011;51113;53.646;-113.674;2023-09-19T08:56:54;1.05;;;0.70;;
64686;SDS011;51113;53.646;-113.674;2023-09-19T08:59:24;3.75;;;0.93;;
64686;SDS011;51113;53.646;-113.674;2023-09-19T09:01:57;0.70;;;0.70;;
64686;SDS011;51113;53.646;-113.674;2023-09-19T09:04:26;1.08;;;0.80;;
64686;SDS011;51113;53.646;-113.674;2023-09-19T09:06:55;1.38;;;0.90;;
64686;SDS011;51113;53.646;-113.674;2023-09-19T09:09:24;2.70;;;0.80;;
64686;SDS011;51113;53.646;-113.674;2023-09-19T09:11:53;1.42;;;0.90;;
64686;SDS011;51113;53.646;-113.674;2023-09-19T09:14:24;1.13;;;0.80;;
64686;SDS011;51113;53.646;-113.674;2023-09-19T09:16:53;0.80;;;0.80;;
64686;SDS011;51113;53.646;-113.674;2023-09-19T09:19:26;1.77;;;0.80;;
64686;SDS011;51113;53.646;-113.674;2023-09-19T09:22:04;1.38;;;0.82;;
64686;SDS011;51113;53.646;-113.674;2023-09-19T09:24:37;0.60;;;0.60;;
64686;SDS011;51113;53.646;-113.674;2023-09-19T09:27:18;0.82;;;0.70;;
64686;SDS011;51113;53.646;-113.674;2023-09-19T09:29:48;1.02;;;0.90;;
64686;SDS011;51113;53.646;-113.674;2023-09-19T09:32:18;1.08;;;0.70;;
64686;SDS011;51113;53.646;-113.674;2023-09-19T09:34:55;0.70;;;0.70;;
64686;SDS011;51113;53.646;-113.674;2023-09-19T09:37:28;0.82;;;0.80;;
64686;SDS011;51113;53.646;-113.674;2023-09-19T09:40:01;2.20;;;0.80;;
64686;SDS011;51113;53.646;-113.674;2023-09-19T09:42:53;1.00;;;0.77;;
64686;SDS011;51113;53.646;-113.674;2023-09-19T09:45:26;0.80;;;0.80;;
64686;SDS011;51113;53.646;-113.674;2023-09-19T09:48:01;0.88;;;0.80;;
64686;SDS011;51113;53.646;-113.674;2023-09-19T09:50:48;1.00;;;0.70;;
64686;SDS011;51113;53.646;-113.674;2023-09-19T09:53:24;2.25;;;0.73;;
64686;SDS011;51113;53.646;-113.674;2023-09-19T09:56:06;0.77;;;0.77;;
64686;SDS011;51113;53.646;-113.674;2023-09-19T09:58:36;1.08;;;0.80;;
64686;SDS011;51113;53.646;-113.674;2023-09-19T10:01:08;0.70;;;0.70;;
64686;SDS011;51113;53.646;-113.674;2023-09-19T10:03:39;1.67;;;0.90;;
64686;SDS011;51113;53.646;-113.674;2023-09-19T10:06:12;0.70;;;0.70;;
64686;SDS011;51113;53.646;-113.674;2023-09-19T10:09:12;1.63;;;0.70;;
64686;SDS011;51113;53.646;-113.674;2023-09-19T10:12:04;0.63;;;0.63;;
64686;SDS011;51113;53.646;-113.674;2023-09-19T10:14:37;0.82;;;0.70;;
64686;SDS011;51113;53.646;-113.674;2023-09-19T10:17:06;1.35;;;1.10;;
64686;SDS011;51113;53.646;-113.674;2023-09-19T10:19:56;1.35;;;0.70;;
64686;SDS011;51113;53.646;-113.674;2023-09-19T10:22:26;5.13;;;0.90;;
64686;SDS011;51113;53.646;-113.674;2023-09-19T10:24:59;1.45;;;0.80;;
64686;SDS011;51113;53.646;-113.674;2023-09-19T10:27:29;0.70;;;0.70;;
64686;SDS011;51113;53.646;-113.674;2023-09-19T10:30:05;1.33;;;0.75;;
64686;SDS011;51113;53.646;-113.674;2023-09-19T10:32:36;1.02;;;0.90;;
64686;SDS011;51113;53.646;-113.674;2023-09-19T10:35:08;2.92;;;0.82;;
64686;SDS011;51113;53.646;-113.674;2023-09-19T10:37:40;0.70;;;0.70;;
64686;SDS011;51113;53.646;-113.674;2023-09-19T10:40:13;1.30;;;0.80;;
64686;SDS011;51113;53.646;-113.674;2023-09-19T10:42:43;0.80;;;0.75;;
64686;SDS011;51113;53.646;-113.674;2023-09-19T10:45:14;0.90;;;0.80;;
64686;SDS011;51113;53.646;-113.674;2023-09-19T10:47:45;0.70;;;0.70;;
64686;SDS011;51113;53.646;-113.674;2023-09-19T10:50:21;0.65;;;0.65;;
64686;SDS011;51113;53.646;-113.674;2023-09-19T10:52:50;3.83;;;1.00;;
64686;SDS011;51113;53.646;-113.674;2023-09-19T10:55:28;1.20;;;0.70;;
64686;SDS011;51113;53.646;-113.674;2023-09-19T10:57:58;0.77;;;0.70;;
64686;SDS011;51113;53.646;-113.674;2023-09-19T11:00:28;2.25;;;0.70;;
64686;SDS011;51113;53.646;-113.674;2023-09-19T11:05:40;0.77;;;0.77;;
64686;SDS011;51113;53.646;-113.674;2023-09-19T11:08:09;1.95;;;0.82;;
64686;SDS011;51113;53.646;-113.674;2023-09-19T11:10:46;1.48;;;0.80;;
64686;SDS011;51113;53.646;-113.674;2023-09-19T11:13:35;1.40;;;0.73;;
64686;SDS011;51113;53.646;-113.674;2023-09-19T11:16:08;0.77;;;0.73;;
64686;SDS011;51113;53.646;-113.674;2023-09-19T11:27:15;0.80;;;0.77;;
64686;SDS011;51113;53.646;-113.674;2023-09-19T11:29:45;0.93;;;0.73;;
64686;SDS011;51113;53.646;-113.674;2023-09-19T11:32:15;9.85;;;0.82;;
64686;SDS011;51113;53.646;-113.674;2023-09-19T11:34:45;1.27;;;0.80;;
64686;SDS011;51113;53.646;-113.674;2023-09-19T11:42:44;1.48;;;0.70;;
64686;SDS011;51113;53.646;-113.674;2023-09-19T11:48:18;4.57;;;0.70;;
64686;SDS011;51113;53.646;-113.674;2023-09-19T11:50:47;0.70;;;0.70;;
64686;SDS011;51113;53.646;-113.674;2023-09-19T11:53:18;0.80;;;0.80;;
64686;SDS011;51113;53.646;-113.674;2023-09-19T11:55:49;0.82;;;0.80;;
64686;SDS011;51113;53.646;-113.674;2023-09-19T11:58:18;1.17;;;0.80;;
64686;SDS011;51113;53.646;-113.674;2023-09-19T12:00:53;4.40;;;1.63;;
64686;SDS011;51113;53.646;-113.674;2023-09-19T12:03:29;0.70;;;0.70;;
64686;SDS011;51113;53.646;-113.674;2023-09-19T12:05:59;1.60;;;0.80;;
64686;SDS011;51113;53.646;-113.674;2023-09-19T12:08:30;3.53;;;0.73;;
64686;SDS011;51113;53.646;-113.674;2023-09-19T12:11:00;0.70;;;0.70;;
64686;SDS011;51113;53.646;-113.674;2023-09-19T12:13:29;1.17;;;0.70;;
64686;SDS011;51113;53.646;-113.674;2023-09-19T12:15:59;1.20;;;0.85;;
64686;SDS011;51113;53.646;-113.674;2023-09-19T12:18:28;0.80;;;0.70;;
64686;SDS011;51113;53.646;-113.674;2023-09-19T12:20:57;1.00;;;0.90;;
64686;SDS011;51113;53.646;-113.674;2023-09-19T12:23:26;4.10;;;0.80;;
64686;SDS011;51113;53.646;-113.674;2023-09-19T12:25:55;0.75;;;0.70;;
64686;SDS011;51113;53.646;-113.674;2023-09-19T12:28:26;0.75;;;0.75;;
64686;SDS011;51113;53.646;-113.674;2023-09-19T12:31:07;0.80;;;0.80;;
64686;SDS011;51113;53.646;-113.674;2023-09-19T12:33:36;1.17;;;0.90;;
64686;SDS011;51113;53.646;-113.674;2023-09-19T12:36:23;1.10;;;0.90;;
64686;SDS011;51113;53.646;-113.674;2023-09-19T12:39:02;1.42;;;0.95;;
64686;SDS011;51113;53.646;-113.674;2023-09-19T12:41:37;0.70;;;0.63;;
64686;SDS011;51113;53.646;-113.674;2023-09-19T12:44:07;1.00;;;0.90;;
64686;SDS011;51113;53.646;-113.674;2023-09-19T12:49:19;0.80;;;0.70;;
64686;SDS011;51113;53.646;-113.674;2023-09-19T12:51:48;0.70;;;0.70;;
64686;SDS011;51113;53.646;-113.674;2023-09-19T12:54:17;0.93;;;0.68;;
64686;SDS011;51113;53.646;-113.674;2023-09-19T12:56:45;1.25;;;0.90;;
64686;SDS011;51113;53.646;-113.674;2023-09-19T12:59:16;0.70;;;0.70;;
64686;SDS011;51113;53.646;-113.674;2023-09-19T13:01:45;1.52;;;0.90;;
64686;SDS011;51113;53.646;-113.674;2023-09-19T13:06:48;1.25;;;0.82;;
64686;SDS011;51113;53.646;-113.674;2023-09-19T13:09:19;1.30;;;0.90;;
64686;SDS011;51113;53.646;-113.674;2023-09-19T13:12:02;0.80;;;0.80;;
64686;SDS011;51113;53.646;-113.674;2023-09-19T13:14:31;1.27;;;0.80;;
64686;SDS011;51113;53.646;-113.674;2023-09-19T13:19:57;0.95;;;0.85;;
64686;SDS011;51113;53.646;-113.674;2023-09-19T13:22:39;1.10;;;0.80;;
64686;SDS011;51113;53.646;-113.674;2023-09-19T13:25:16;1.17;;;0.73;;
64686;SDS011;51113;53.646;-113.674;2023-09-19T13:27:47;5.53;;;1.10;;
64686;SDS011;51113;53.646;-113.674;2023-09-19T13:30:20;1.20;;;0.85;;
64686;SDS011;51113;53.646;-113.674;2023-09-19T13:33:03;4.68;;;1.27;;
64686;SDS011;51113;53.646;-113.674;2023-09-19T13:35:34;1.67;;;1.02;;
64686;SDS011;51113;53.646;-113.674;2023-09-19T13:38:05;3.22;;;1.00;;
64686;SDS011;51113;53.646;-113.674;2023-09-19T13:40:38;11.00;;;1.00;;
64686;SDS011;51113;53.646;-113.674;2023-09-19T13:43:09;1.00;;;0.90;;
64686;SDS011;51113;53.646;-113.674;2023-09-19T13:45:39;1.83;;;1.17;;
64686;SDS011;51113;53.646;-113.674;2023-09-19T13:48:10;1.85;;;0.80;;
64686;SDS011;51113;53.646;-113.674;2023-09-19T13:50:41;1.52;;;0.98;;
64686;SDS011;51113;53.646;-113.674;2023-09-19T13:53:10;1.17;;;0.82;;
64686;SDS011;51113;53.646;-113.674;2023-09-19T13:55:39;1.23;;;0.90;;
64686;SDS011;51113;53.646;-113.674;2023-09-19T13:58:09;1.15;;;0.98;;
64686;SDS011;51113;53.646;-113.674;2023-09-19T14:00:38;2.25;;;1.10;;
64686;SDS011;51113;53.646;-113.674;2023-09-19T14:03:07;1.27;;;0.90;;
64686;SDS011;51113;53.646;-113.674;2023-09-19T14:05:35;0.90;;;0.80;;
64686;SDS011;51113;53.646;-113.674;2023-09-19T14:08:05;0.80;;;0.80;;
64686;SDS011;51113;53.646;-113.674;2023-09-19T14:10:34;0.82;;;0.80;;
64686;SDS011;51113;53.646;-113.674;2023-09-19T14:13:02;0.75;;;0.75;;
64686;SDS011;51113;53.646;-113.674;2023-09-19T14:15:32;0.70;;;0.70;;
64686;SDS011;51113;53.646;-113.674;2023-09-19T14:18:04;0.90;;;0.73;;
64686;SDS011;51113;53.646;-113.674;2023-09-19T14:20:33;1.00;;;0.85;;
64686;SDS011;51113;53.646;-113.674;2023-09-19T14:23:08;1.15;;;0.80;;
64686;SDS011;51113;53.646;-113.674;2023-09-19T14:25:37;5.63;;;0.95;;
64686;SDS011;51113;53.646;-113.674;2023-09-19T14:28:06;1.40;;;0.90;;
64686;SDS011;51113;53.646;-113.674;2023-09-19T14:30:38;5.30;;;0.93;;
64686;SDS011;51113;53.646;-113.674;2023-09-19T14:33:06;1.25;;;1.00;;
64686;SDS011;51113;53.646;-113.674;2023-09-19T14:35:36;0.98;;;0.82;;
64686;SDS011;51113;53.646;-113.674;2023-09-19T14:38:09;1.83;;;1.00;;
64686;SDS011;51113;53.646;-113.674;2023-09-19T14:40:37;5.40;;;0.90;;
64686;SDS011;51113;53.646;-113.674;2023-09-19T14:43:07;1.02;;;0.85;;
64686;SDS011;51113;53.646;-113.674;2023-09-19T14:45:36;1.55;;;0.90;;
64686;SDS011;51113;53.646;-113.674;2023-09-19T14:48:05;5.00;;;0.93;;
64686;SDS011;51113;53.646;-113.674;2023-09-19T14:50:38;2.05;;;0.98;;
64686;SDS011;51113;53.646;-113.674;2023-09-19T14:53:06;1.88;;;1.08;;
64686;SDS011;51113;53.646;-113.674;2023-09-19T14:55:38;4.22;;;0.90;;
64686;SDS011;51113;53.646;-113.674;2023-09-19T14:58:09;2.60;;;1.23;;
64686;SDS011;51113;53.646;-113.674;2023-09-19T15:00:38;2.58;;;1.20;;
64686;SDS011;51113;53.646;-113.674;2023-09-19T15:03:07;4.10;;;0.90;;
64686;SDS011;51113;53.646;-113.674;2023-09-19T15:05:36;3.30;;;1.15;;
64686;SDS011;51113;53.646;-113.674;2023-09-19T15:08:05;22.63;;;1.48;;
64686;SDS011;51113;53.646;-113.674;2023-09-19T15:10:34;8.23;;;1.10;;
64686;SDS011;51113;53.646;-113.674;2023-09-19T15:13:03;10.75;;;1.30;;
64686;SDS011;51113;53.646;-113.674;2023-09-19T15:15:31;2.78;;;1.15;;
64686;SDS011;51113;53.646;-113.674;2023-09-19T15:18:00;5.47;;;1.10;;
64686;SDS011;51113;53.646;-113.674;2023-09-19T15:20:29;4.90;;;1.60;;